sensor_id;sensor_type;location;lat;lon;timestamp;P1;durP1;ratioP1;P2;durP2;ratioP2
58528;SDS011;44322;52.968;5.816;2023-05-07T00:01:39;31.23;;;19.23;;
58528;SDS011;44322;52.968;5.816;2023-05-07T00:04:05;26.10;;;17.73;;
58528;SDS011;44322;52.968;5.816;2023-05-07T00:06:31;26.35;;;17.27;;
58528;SDS011;44322;52.968;5.816;2023-05-07T00:08:57;27.02;;;18.80;;
58528;SDS011;44322;52.968;5.816;2023-05-07T00:11:23;27.20;;;19.17;;
58528;SDS011;44322;52.968;5.816;2023-05-07T00:13:49;27.88;;;18.50;;
58528;SDS011;44322;52.968;5.816;2023-05-07T00:16:14;30.77;;;19.60;;
58528;SDS011;44322;52.968;5.816;2023-05-07T00:18:40;26.85;;;17.88;;
58528;SDS011;44322;52.968;5.816;2023-05-07T00:21:05;26.92;;;18.33;;
58528;SDS011;44322;52.968;5.816;2023-05-07T00:23:31;30.10;;;19.58;;
58528;SDS011;44322;52.968;5.816;2023-05-07T00:25:56;28.20;;;18.70;;
58528;SDS011;44322;52.968;5.816;2023-05-07T00:28:22;28.83;;;18.95;;
58528;SDS011;44322;52.968;5.816;2023-05-07T00:30:48;31.95;;;20.77;;
58528;SDS011;44322;52.968;5.816;2023-05-07T00:33:13;31.05;;;19.40;;
58528;SDS011;44322;52.968;5.816;2023-05-07T00:35:39;27.10;;;18.88;;
58528;SDS011;44322;52.968;5.816;2023-05-07T00:38:05;29.90;;;19.30;;
58528;SDS011;44322;52.968;5.816;2023-05-07T00:40:31;28.08;;;18.98;;
58528;SDS011;44322;52.968;5.816;2023-05-07T00:42:56;29.77;;;19.13;;
58528;SDS011;44322;52.968;5.816;2023-05-07T00:45:25;28.13;;;19.58;;
58528;SDS011;44322;52.968;5.816;2023-05-07T00:47:53;27.20;;;18.88;;
58528;SDS011;44322;52.968;5.816;2023-05-07T00:52:45;24.08;;;16.50;;
58528;SDS011;44322;52.968;5.816;2023-05-07T00:55:10;28.08;;;19.65;;
58528;SDS011;44322;52.968;5.816;2023-05-07T00:57:39;26.40;;;18.70;;
58528;SDS011;44322;52.968;5.816;2023-05-07T01:00:06;28.60;;;19.83;;
58528;SDS011;44322;52.968;5.816;2023-05-07T01:02:37;26.38;;;18.48;;
58528;SDS011;44322;52.968;5.816;2023-05-07T01:05:03;29.65;;;20.13;;
58528;SDS011;44322;52.968;5.816;2023-05-07T01:07:31;25.45;;;18.73;;
58528;SDS011;44322;52.968;5.816;2023-05-07T01:09:57;29.45;;;18.83;;
58528;SDS011;44322;52.968;5.816;2023-05-07T01:12:23;26.90;;;19.55;;
58528;SDS011;44322;52.968;5.816;2023-05-07T01:14:49;28.00;;;19.27;;
58528;SDS011;44322;52.968;5.816;2023-05-07T01:17:15;27.08;;;19.70;;
58528;SDS011;44322;52.968;5.816;2023-05-07T01:19:45;24.10;;;18.23;;
58528;SDS011;44322;52.968;5.816;2023-05-07T01:22:11;26.90;;;19.58;;
58528;SDS011;44322;52.968;5.816;2023-05-07T01:24:48;28.90;;;20.17;;
58528;SDS011;44322;52.968;5.816;2023-05-07T01:27:15;25.30;;;20.13;;
58528;SDS011;44322;52.968;5.816;2023-05-07T01:29:41;30.30;;;19.60;;
58528;SDS011;44322;52.968;5.816;2023-05-07T01:32:06;26.15;;;18.52;;
58528;SDS011;44322;52.968;5.816;2023-05-07T01:34:32;28.33;;;20.60;;
58528;SDS011;44322;52.968;5.816;2023-05-07T01:36:59;28.23;;;19.33;;
58528;SDS011;44322;52.968;5.816;2023-05-07T01:39:26;30.08;;;20.42;;
58528;SDS011;44322;52.968;5.816;2023-05-07T01:41:53;31.08;;;20.67;;
58528;SDS011;44322;52.968;5.816;2023-05-07T01:44:21;30.80;;;20.65;;
58528;SDS011;44322;52.968;5.816;2023-05-07T01:46:47;29.85;;;21.38;;
58528;SDS011;44322;52.968;5.816;2023-05-07T01:49:14;31.40;;;19.85;;
58528;SDS011;44322;52.968;5.816;2023-05-07T01:51:40;27.88;;;19.48;;
58528;SDS011;44322;52.968;5.816;2023-05-07T01:54:06;28.65;;;19.95;;
58528;SDS011;44322;52.968;5.816;2023-05-07T01:56:33;29.52;;;19.55;;
58528;SDS011;44322;52.968;5.816;2023-05-07T01:58:59;32.25;;;20.08;;
58528;SDS011;44322;52.968;5.816;2023-05-07T02:01:26;29.88;;;18.75;;
58528;SDS011;44322;52.968;5.816;2023-05-07T02:03:52;25.05;;;18.50;;
58528;SDS011;44322;52.968;5.816;2023-05-07T02:06:22;24.67;;;17.38;;
58528;SDS011;44322;52.968;5.816;2023-05-07T02:08:49;24.00;;;17.55;;
58528;SDS011;44322;52.968;5.816;2023-05-07T02:11:15;20.50;;;16.25;;
58528;SDS011;44322;52.968;5.816;2023-05-07T02:13:41;22.30;;;15.35;;
58528;SDS011;44322;52.968;5.816;2023-05-07T02:16:07;23.88;;;15.50;;
58528;SDS011;44322;52.968;5.816;2023-05-07T02:18:32;21.45;;;16.05;;
58528;SDS011;44322;52.968;5.816;2023-05-07T02:20:58;22.73;;;15.38;;
58528;SDS011;44322;52.968;5.816;2023-05-07T02:23:24;22.45;;;15.30;;
58528;SDS011;44322;52.968;5.816;2023-05-07T02:25:50;21.48;;;15.48;;
58528;SDS011;44322;52.968;5.816;2023-05-07T02:28:16;23.02;;;16.33;;
58528;SDS011;44322;52.968;5.816;2023-05-07T02:30:52;21.70;;;15.27;;
58528;SDS011;44322;52.968;5.816;2023-05-07T02:33:18;19.20;;;14.18;;
58528;SDS011;44322;52.968;5.816;2023-05-07T02:35:44;22.40;;;16.60;;
58528;SDS011;44322;52.968;5.816;2023-05-07T02:38:12;22.35;;;15.43;;
58528;SDS011;44322;52.968;5.816;2023-05-07T02:40:39;21.55;;;15.75;;
58528;SDS011;44322;52.968;5.816;2023-05-07T02:43:05;25.77;;;17.05;;
58528;SDS011;44322;52.968;5.816;2023-05-07T02:45:31;23.50;;;15.88;;
58528;SDS011;44322;52.968;5.816;2023-05-07T02:47:58;23.58;;;16.70;;
58528;SDS011;44322;52.968;5.816;2023-05-07T02:50:23;21.50;;;16.17;;
58528;SDS011;44322;52.968;5.816;2023-05-07T02:52:50;23.33;;;17.35;;
58528;SDS011;44322;52.968;5.816;2023-05-07T02:55:16;25.15;;;16.77;;
58528;SDS011;44322;52.968;5.816;2023-05-07T02:57:42;24.35;;;17.67;;
58528;SDS011;44322;52.968;5.816;2023-05-07T03:00:15;25.77;;;17.92;;
58528;SDS011;44322;52.968;5.816;2023-05-07T03:02:49;25.15;;;18.45;;
58528;SDS011;44322;52.968;5.816;2023-05-07T03:05:14;27.90;;;19.40;;
58528;SDS011;44322;52.968;5.816;2023-05-07T03:07:40;27.67;;;19.67;;
58528;SDS011;44322;52.968;5.816;2023-05-07T03:10:09;26.88;;;19.10;;
58528;SDS011;44322;52.968;5.816;2023-05-07T03:12:35;28.65;;;20.95;;
58528;SDS011;44322;52.968;5.816;2023-05-07T03:15:01;31.52;;;20.88;;
58528;SDS011;44322;52.968;5.816;2023-05-07T03:17:26;30.80;;;21.85;;
58528;SDS011;44322;52.968;5.816;2023-05-07T03:19:52;32.78;;;22.77;;
58528;SDS011;44322;52.968;5.816;2023-05-07T03:22:18;29.42;;;22.23;;
58528;SDS011;44322;52.968;5.816;2023-05-07T03:24:43;30.27;;;22.13;;
58528;SDS011;44322;52.968;5.816;2023-05-07T03:27:09;31.85;;;22.67;;
58528;SDS011;44322;52.968;5.816;2023-05-07T03:29:35;31.70;;;22.67;;
58528;SDS011;44322;52.968;5.816;2023-05-07T03:32:01;31.45;;;22.52;;
58528;SDS011;44322;52.968;5.816;2023-05-07T03:34:26;30.52;;;22.98;;
58528;SDS011;44322;52.968;5.816;2023-05-07T03:36:52;33.55;;;23.73;;
58528;SDS011;44322;52.968;5.816;2023-05-07T03:39:18;33.13;;;23.45;;
58528;SDS011;44322;52.968;5.816;2023-05-07T03:41:44;30.70;;;22.60;;
58528;SDS011;44322;52.968;5.816;2023-05-07T03:44:10;36.55;;;23.40;;
58528;SDS011;44322;52.968;5.816;2023-05-07T03:46:35;35.40;;;23.25;;
58528;SDS011;44322;52.968;5.816;2023-05-07T03:49:02;33.38;;;23.52;;
58528;SDS011;44322;52.968;5.816;2023-05-07T03:51:28;31.60;;;23.20;;
58528;SDS011;44322;52.968;5.816;2023-05-07T03:53:54;32.47;;;23.05;;
58528;SDS011;44322;52.968;5.816;2023-05-07T03:56:21;36.40;;;24.25;;
58528;SDS011;44322;52.968;5.816;2023-05-07T03:58:52;33.10;;;23.38;;
58528;SDS011;44322;52.968;5.816;2023-05-07T04:01:17;32.88;;;23.77;;
58528;SDS011;44322;52.968;5.816;2023-05-07T04:03:43;31.90;;;22.85;;
58528;SDS011;44322;52.968;5.816;2023-05-07T04:06:09;32.92;;;23.67;;
58528;SDS011;44322;52.968;5.816;2023-05-07T04:08:35;35.35;;;23.52;;
58528;SDS011;44322;52.968;5.816;2023-05-07T04:11:02;33.50;;;22.45;;
58528;SDS011;44322;52.968;5.816;2023-05-07T04:15:57;35.45;;;23.52;;
58528;SDS011;44322;52.968;5.816;2023-05-07T04:18:24;36.85;;;23.23;;
58528;SDS011;44322;52.968;5.816;2023-05-07T04:20:50;36.00;;;24.85;;
58528;SDS011;44322;52.968;5.816;2023-05-07T04:23:16;37.72;;;23.85;;
58528;SDS011;44322;52.968;5.816;2023-05-07T04:25:42;33.55;;;23.80;;
58528;SDS011;44322;52.968;5.816;2023-05-07T04:28:23;33.80;;;24.63;;
58528;SDS011;44322;52.968;5.816;2023-05-07T04:30:50;35.63;;;24.50;;
58528;SDS011;44322;52.968;5.816;2023-05-07T04:33:16;35.63;;;23.85;;
58528;SDS011;44322;52.968;5.816;2023-05-07T04:35:43;44.15;;;24.70;;
58528;SDS011;44322;52.968;5.816;2023-05-07T04:38:09;34.95;;;25.30;;
58528;SDS011;44322;52.968;5.816;2023-05-07T04:40:35;38.85;;;25.42;;
58528;SDS011;44322;52.968;5.816;2023-05-07T04:43:02;37.83;;;25.80;;
58528;SDS011;44322;52.968;5.816;2023-05-07T04:45:31;37.38;;;25.08;;
58528;SDS011;44322;52.968;5.816;2023-05-07T04:47:58;37.53;;;24.70;;
58528;SDS011;44322;52.968;5.816;2023-05-07T04:50:23;37.45;;;25.02;;
58528;SDS011;44322;52.968;5.816;2023-05-07T04:55:17;41.30;;;26.13;;
58528;SDS011;44322;52.968;5.816;2023-05-07T04:57:43;37.72;;;24.90;;
58528;SDS011;44322;52.968;5.816;2023-05-07T05:00:11;40.47;;;27.13;;
58528;SDS011;44322;52.968;5.816;2023-05-07T05:02:42;37.90;;;26.20;;
58528;SDS011;44322;52.968;5.816;2023-05-07T05:05:09;40.42;;;25.80;;
58528;SDS011;44322;52.968;5.816;2023-05-07T05:07:35;41.50;;;26.95;;
58528;SDS011;44322;52.968;5.816;2023-05-07T05:10:01;36.88;;;25.42;;
58528;SDS011;44322;52.968;5.816;2023-05-07T05:12:30;38.97;;;26.52;;
58528;SDS011;44322;52.968;5.816;2023-05-07T05:14:57;42.15;;;27.00;;
58528;SDS011;44322;52.968;5.816;2023-05-07T05:17:23;39.70;;;26.88;;
58528;SDS011;44322;52.968;5.816;2023-05-07T05:19:48;39.25;;;26.80;;
58528;SDS011;44322;52.968;5.816;2023-05-07T05:22:15;42.75;;;27.83;;
58528;SDS011;44322;52.968;5.816;2023-05-07T05:24:40;44.60;;;27.92;;
58528;SDS011;44322;52.968;5.816;2023-05-07T05:27:07;43.22;;;28.00;;
58528;SDS011;44322;52.968;5.816;2023-05-07T05:29:32;42.17;;;28.90;;
58528;SDS011;44322;52.968;5.816;2023-05-07T05:31:58;45.17;;;28.80;;
58528;SDS011;44322;52.968;5.816;2023-05-07T05:34:25;46.17;;;28.80;;
58528;SDS011;44322;52.968;5.816;2023-05-07T05:36:51;45.42;;;29.13;;
58528;SDS011;44322;52.968;5.816;2023-05-07T05:39:17;43.53;;;27.98;;
58528;SDS011;44322;52.968;5.816;2023-05-07T05:41:43;46.58;;;29.45;;
58528;SDS011;44322;52.968;5.816;2023-05-07T05:44:09;44.10;;;28.45;;
58528;SDS011;44322;52.968;5.816;2023-05-07T05:46:35;47.17;;;30.10;;
58528;SDS011;44322;52.968;5.816;2023-05-07T05:49:01;48.60;;;30.35;;
58528;SDS011;44322;52.968;5.816;2023-05-07T05:51:26;47.15;;;30.35;;
58528;SDS011;44322;52.968;5.816;2023-05-07T05:53:52;50.20;;;30.42;;
58528;SDS011;44322;52.968;5.816;2023-05-07T05:56:19;47.40;;;31.20;;
58528;SDS011;44322;52.968;5.816;2023-05-07T05:58:47;45.15;;;28.60;;
58528;SDS011;44322;52.968;5.816;2023-05-07T06:01:13;47.58;;;30.55;;
58528;SDS011;44322;52.968;5.816;2023-05-07T06:03:39;42.35;;;28.80;;
58528;SDS011;44322;52.968;5.816;2023-05-07T06:06:11;46.38;;;29.92;;
58528;SDS011;44322;52.968;5.816;2023-05-07T06:08:37;48.90;;;30.33;;
58528;SDS011;44322;52.968;5.816;2023-05-07T06:11:03;44.45;;;30.35;;
58528;SDS011;44322;52.968;5.816;2023-05-07T06:13:31;46.90;;;30.98;;
58528;SDS011;44322;52.968;5.816;2023-05-07T06:15:58;48.03;;;30.48;;
58528;SDS011;44322;52.968;5.816;2023-05-07T06:18:23;45.72;;;28.98;;
58528;SDS011;44322;52.968;5.816;2023-05-07T06:20:49;49.15;;;30.75;;
58528;SDS011;44322;52.968;5.816;2023-05-07T06:23:22;46.70;;;29.30;;
58528;SDS011;44322;52.968;5.816;2023-05-07T06:25:48;47.08;;;29.80;;
58528;SDS011;44322;52.968;5.816;2023-05-07T06:28:17;43.83;;;29.42;;
58528;SDS011;44322;52.968;5.816;2023-05-07T06:30:43;45.53;;;29.13;;
58528;SDS011;44322;52.968;5.816;2023-05-07T06:33:09;44.08;;;29.40;;
58528;SDS011;44322;52.968;5.816;2023-05-07T06:35:34;44.80;;;29.38;;
58528;SDS011;44322;52.968;5.816;2023-05-07T06:38:00;44.03;;;29.50;;
58528;SDS011;44322;52.968;5.816;2023-05-07T06:40:28;43.33;;;29.63;;
58528;SDS011;44322;52.968;5.816;2023-05-07T06:42:54;40.70;;;28.15;;
58528;SDS011;44322;52.968;5.816;2023-05-07T06:45:39;43.40;;;29.30;;
58528;SDS011;44322;52.968;5.816;2023-05-07T06:48:07;40.38;;;27.80;;
58528;SDS011;44322;52.968;5.816;2023-05-07T06:50:42;41.10;;;27.00;;
58528;SDS011;44322;52.968;5.816;2023-05-07T06:53:08;42.67;;;29.08;;
58528;SDS011;44322;52.968;5.816;2023-05-07T06:55:33;41.40;;;27.98;;
58528;SDS011;44322;52.968;5.816;2023-05-07T06:58:00;41.33;;;28.05;;
58528;SDS011;44322;52.968;5.816;2023-05-07T07:00:26;44.15;;;29.67;;
58528;SDS011;44322;52.968;5.816;2023-05-07T07:02:54;39.75;;;28.40;;
58528;SDS011;44322;52.968;5.816;2023-05-07T07:05:23;39.40;;;26.92;;
58528;SDS011;44322;52.968;5.816;2023-05-07T07:07:49;42.53;;;28.05;;
58528;SDS011;44322;52.968;5.816;2023-05-07T07:10:21;41.22;;;27.58;;
58528;SDS011;44322;52.968;5.816;2023-05-07T07:12:48;39.97;;;28.00;;
58528;SDS011;44322;52.968;5.816;2023-05-07T07:15:14;38.60;;;26.25;;
58528;SDS011;44322;52.968;5.816;2023-05-07T07:17:41;43.15;;;27.35;;
58528;SDS011;44322;52.968;5.816;2023-05-07T07:20:06;40.83;;;26.77;;
58528;SDS011;44322;52.968;5.816;2023-05-07T07:22:32;39.55;;;27.17;;
58528;SDS011;44322;52.968;5.816;2023-05-07T07:24:59;37.50;;;26.52;;
58528;SDS011;44322;52.968;5.816;2023-05-07T07:27:25;39.63;;;27.10;;
58528;SDS011;44322;52.968;5.816;2023-05-07T07:29:50;38.78;;;25.77;;
58528;SDS011;44322;52.968;5.816;2023-05-07T07:32:16;39.92;;;26.73;;
58528;SDS011;44322;52.968;5.816;2023-05-07T07:34:42;41.00;;;27.30;;
58528;SDS011;44322;52.968;5.816;2023-05-07T07:37:08;37.58;;;26.92;;
58528;SDS011;44322;52.968;5.816;2023-05-07T07:39:35;40.22;;;27.52;;
58528;SDS011;44322;52.968;5.816;2023-05-07T07:42:03;37.50;;;26.15;;
58528;SDS011;44322;52.968;5.816;2023-05-07T07:44:29;35.58;;;25.50;;
58528;SDS011;44322;52.968;5.816;2023-05-07T07:46:59;40.22;;;26.95;;
58528;SDS011;44322;52.968;5.816;2023-05-07T07:49:26;37.55;;;26.50;;
58528;SDS011;44322;52.968;5.816;2023-05-07T07:51:53;38.90;;;27.55;;
58528;SDS011;44322;52.968;5.816;2023-05-07T07:54:18;36.42;;;26.17;;
58528;SDS011;44322;52.968;5.816;2023-05-07T07:56:44;35.55;;;25.13;;
58528;SDS011;44322;52.968;5.816;2023-05-07T07:59:11;34.67;;;25.17;;
58528;SDS011;44322;52.968;5.816;2023-05-07T08:01:39;36.13;;;24.90;;
58528;SDS011;44322;52.968;5.816;2023-05-07T08:04:05;35.45;;;26.05;;
58528;SDS011;44322;52.968;5.816;2023-05-07T08:06:34;36.13;;;25.92;;
58528;SDS011;44322;52.968;5.816;2023-05-07T08:09:00;35.50;;;25.40;;
58528;SDS011;44322;52.968;5.816;2023-05-07T08:11:26;35.63;;;25.58;;
58528;SDS011;44322;52.968;5.816;2023-05-07T08:13:54;35.47;;;25.25;;
58528;SDS011;44322;52.968;5.816;2023-05-07T08:16:20;33.35;;;24.05;;
58528;SDS011;44322;52.968;5.816;2023-05-07T08:18:46;37.88;;;26.27;;
58528;SDS011;44322;52.968;5.816;2023-05-07T08:21:11;32.33;;;24.20;;
58528;SDS011;44322;52.968;5.816;2023-05-07T08:23:38;32.53;;;24.20;;
58528;SDS011;44322;52.968;5.816;2023-05-07T08:26:04;34.92;;;24.80;;
58528;SDS011;44322;52.968;5.816;2023-05-07T08:28:29;33.58;;;24.30;;
58528;SDS011;44322;52.968;5.816;2023-05-07T08:30:55;33.15;;;23.40;;
58528;SDS011;44322;52.968;5.816;2023-05-07T08:33:22;32.85;;;24.30;;
58528;SDS011;44322;52.968;5.816;2023-05-07T08:35:48;31.13;;;23.75;;
58528;SDS011;44322;52.968;5.816;2023-05-07T08:38:14;35.60;;;24.90;;
58528;SDS011;44322;52.968;5.816;2023-05-07T08:40:40;32.95;;;25.17;;
58528;SDS011;44322;52.968;5.816;2023-05-07T08:43:14;31.48;;;24.17;;
58528;SDS011;44322;52.968;5.816;2023-05-07T08:45:43;33.95;;;24.35;;
58528;SDS011;44322;52.968;5.816;2023-05-07T08:50:41;33.08;;;24.50;;
58528;SDS011;44322;52.968;5.816;2023-05-07T08:53:09;33.08;;;25.20;;
58528;SDS011;44322;52.968;5.816;2023-05-07T08:55:34;34.35;;;24.20;;
58528;SDS011;44322;52.968;5.816;2023-05-07T08:58:01;33.63;;;24.63;;
58528;SDS011;44322;52.968;5.816;2023-05-07T09:00:27;33.42;;;25.05;;
58528;SDS011;44322;52.968;5.816;2023-05-07T09:02:54;33.65;;;24.08;;
58528;SDS011;44322;52.968;5.816;2023-05-07T09:05:20;36.30;;;24.73;;
58528;SDS011;44322;52.968;5.816;2023-05-07T09:07:45;35.13;;;24.77;;
58528;SDS011;44322;52.968;5.816;2023-05-07T09:10:13;31.63;;;23.45;;
58528;SDS011;44322;52.968;5.816;2023-05-07T09:12:40;30.85;;;23.80;;
58528;SDS011;44322;52.968;5.816;2023-05-07T09:15:07;32.75;;;24.13;;
58528;SDS011;44322;52.968;5.816;2023-05-07T09:17:34;31.88;;;24.58;;
58528;SDS011;44322;52.968;5.816;2023-05-07T09:20:03;32.17;;;24.20;;
58528;SDS011;44322;52.968;5.816;2023-05-07T09:22:32;33.15;;;24.10;;
58528;SDS011;44322;52.968;5.816;2023-05-07T09:25:03;34.22;;;24.75;;
58528;SDS011;44322;52.968;5.816;2023-05-07T09:27:30;31.95;;;23.40;;
58528;SDS011;44322;52.968;5.816;2023-05-07T09:29:57;33.25;;;24.00;;
58528;SDS011;44322;52.968;5.816;2023-05-07T09:32:23;32.35;;;24.35;;
58528;SDS011;44322;52.968;5.816;2023-05-07T09:34:50;31.23;;;23.08;;
58528;SDS011;44322;52.968;5.816;2023-05-07T09:37:18;30.33;;;22.95;;
58528;SDS011;44322;52.968;5.816;2023-05-07T09:39:46;30.30;;;23.58;;
58528;SDS011;44322;52.968;5.816;2023-05-07T09:42:14;31.73;;;24.15;;
58528;SDS011;44322;52.968;5.816;2023-05-07T09:44:41;31.00;;;23.35;;
58528;SDS011;44322;52.968;5.816;2023-05-07T09:47:10;31.98;;;23.98;;
58528;SDS011;44322;52.968;5.816;2023-05-07T09:49:42;32.45;;;24.08;;
58528;SDS011;44322;52.968;5.816;2023-05-07T09:52:13;33.35;;;24.55;;
58528;SDS011;44322;52.968;5.816;2023-05-07T09:54:45;30.20;;;24.10;;
58528;SDS011;44322;52.968;5.816;2023-05-07T09:57:15;33.60;;;24.80;;
58528;SDS011;44322;52.968;5.816;2023-05-07T09:59:43;31.63;;;23.73;;
58528;SDS011;44322;52.968;5.816;2023-05-07T10:02:12;33.83;;;25.52;;
58528;SDS011;44322;52.968;5.816;2023-05-07T10:04:45;32.10;;;22.25;;
58528;SDS011;44322;52.968;5.816;2023-05-07T10:07:13;30.38;;;22.92;;
58528;SDS011;44322;52.968;5.816;2023-05-07T10:09:38;34.08;;;22.75;;
58528;SDS011;44322;52.968;5.816;2023-05-07T10:12:11;30.80;;;23.45;;
58528;SDS011;44322;52.968;5.816;2023-05-07T10:14:37;29.38;;;23.75;;
58528;SDS011;44322;52.968;5.816;2023-05-07T10:17:04;32.90;;;23.77;;
58528;SDS011;44322;52.968;5.816;2023-05-07T10:19:30;34.80;;;24.90;;
58528;SDS011;44322;52.968;5.816;2023-05-07T10:21:59;29.95;;;23.83;;
58528;SDS011;44322;52.968;5.816;2023-05-07T10:24:31;29.90;;;23.42;;
58528;SDS011;44322;52.968;5.816;2023-05-07T10:27:00;31.75;;;22.90;;
58528;SDS011;44322;52.968;5.816;2023-05-07T10:29:35;29.90;;;22.73;;
58528;SDS011;44322;52.968;5.816;2023-05-07T10:37:19;30.65;;;23.67;;
58528;SDS011;44322;52.968;5.816;2023-05-07T10:39:45;30.08;;;22.77;;
58528;SDS011;44322;52.968;5.816;2023-05-07T10:42:11;30.27;;;22.77;;
58528;SDS011;44322;52.968;5.816;2023-05-07T10:44:40;29.98;;;21.50;;
58528;SDS011;44322;52.968;5.816;2023-05-07T10:47:13;30.90;;;23.00;;
58528;SDS011;44322;52.968;5.816;2023-05-07T10:52:18;29.33;;;22.33;;
58528;SDS011;44322;52.968;5.816;2023-05-07T10:57:41;30.83;;;23.27;;
58528;SDS011;44322;52.968;5.816;2023-05-07T11:05:33;29.80;;;22.63;;
58528;SDS011;44322;52.968;5.816;2023-05-07T11:08:10;28.92;;;22.23;;
58528;SDS011;44322;52.968;5.816;2023-05-07T11:16:41;25.83;;;20.17;;
58528;SDS011;44322;52.968;5.816;2023-05-07T11:19:47;28.95;;;21.38;;
58528;SDS011;44322;52.968;5.816;2023-05-07T11:22:35;31.17;;;23.85;;
58528;SDS011;44322;52.968;5.816;2023-05-07T11:25:25;26.98;;;20.65;;
58528;SDS011;44322;52.968;5.816;2023-05-07T11:28:06;27.40;;;21.38;;
58528;SDS011;44322;52.968;5.816;2023-05-07T11:30:37;27.27;;;21.38;;
58528;SDS011;44322;52.968;5.816;2023-05-07T11:33:04;29.48;;;20.48;;
58528;SDS011;44322;52.968;5.816;2023-05-07T11:35:32;26.42;;;19.92;;
58528;SDS011;44322;52.968;5.816;2023-05-07T11:37:59;27.58;;;21.05;;
58528;SDS011;44322;52.968;5.816;2023-05-07T11:42:53;27.05;;;20.75;;
58528;SDS011;44322;52.968;5.816;2023-05-07T11:45:23;28.15;;;19.65;;
58528;SDS011;44322;52.968;5.816;2023-05-07T11:47:50;23.98;;;19.17;;
58528;SDS011;44322;52.968;5.816;2023-05-07T11:50:16;26.15;;;20.42;;
58528;SDS011;44322;52.968;5.816;2023-05-07T11:52:49;27.52;;;21.40;;
58528;SDS011;44322;52.968;5.816;2023-05-07T11:55:17;27.38;;;21.15;;
58528;SDS011;44322;52.968;5.816;2023-05-07T11:57:43;26.20;;;20.80;;
58528;SDS011;44322;52.968;5.816;2023-05-07T12:00:09;27.85;;;21.42;;
58528;SDS011;44322;52.968;5.816;2023-05-07T12:02:38;28.02;;;21.80;;
58528;SDS011;44322;52.968;5.816;2023-05-07T12:05:04;22.00;;;17.13;;
58528;SDS011;44322;52.968;5.816;2023-05-07T12:07:29;20.92;;;16.48;;
58528;SDS011;44322;52.968;5.816;2023-05-07T12:09:57;27.38;;;18.98;;
58528;SDS011;44322;52.968;5.816;2023-05-07T12:12:22;24.13;;;18.73;;
58528;SDS011;44322;52.968;5.816;2023-05-07T12:14:48;22.30;;;17.08;;
58528;SDS011;44322;52.968;5.816;2023-05-07T12:17:14;21.13;;;15.85;;
58528;SDS011;44322;52.968;5.816;2023-05-07T12:19:40;23.23;;;18.08;;
58528;SDS011;44322;52.968;5.816;2023-05-07T12:22:07;23.20;;;18.20;;
58528;SDS011;44322;52.968;5.816;2023-05-07T12:24:46;21.85;;;17.63;;
58528;SDS011;44322;52.968;5.816;2023-05-07T12:27:15;21.92;;;16.83;;
58528;SDS011;44322;52.968;5.816;2023-05-07T12:29:46;23.73;;;18.17;;
58528;SDS011;44322;52.968;5.816;2023-05-07T12:32:19;22.83;;;18.52;;
58528;SDS011;44322;52.968;5.816;2023-05-07T12:34:46;22.73;;;16.95;;
58528;SDS011;44322;52.968;5.816;2023-05-07T12:37:14;22.45;;;18.33;;
58528;SDS011;44322;52.968;5.816;2023-05-07T12:39:49;21.92;;;16.85;;
58528;SDS011;44322;52.968;5.816;2023-05-07T12:42:28;21.90;;;17.27;;
58528;SDS011;44322;52.968;5.816;2023-05-07T12:44:58;19.05;;;15.77;;
58528;SDS011;44322;52.968;5.816;2023-05-07T12:47:24;19.15;;;16.15;;
58528;SDS011;44322;52.968;5.816;2023-05-07T12:49:50;21.35;;;16.92;;
58528;SDS011;44322;52.968;5.816;2023-05-07T12:52:15;20.60;;;16.77;;
58528;SDS011;44322;52.968;5.816;2023-05-07T12:54:41;18.73;;;14.90;;
58528;SDS011;44322;52.968;5.816;2023-05-07T12:57:07;20.27;;;16.60;;
58528;SDS011;44322;52.968;5.816;2023-05-07T12:59:37;21.90;;;16.03;;
58528;SDS011;44322;52.968;5.816;2023-05-07T13:02:04;19.98;;;16.70;;
58528;SDS011;44322;52.968;5.816;2023-05-07T13:04:30;23.10;;;17.10;;
58528;SDS011;44322;52.968;5.816;2023-05-07T13:06:56;17.10;;;15.30;;
58528;SDS011;44322;52.968;5.816;2023-05-07T13:09:22;19.55;;;16.20;;
58528;SDS011;44322;52.968;5.816;2023-05-07T13:11:47;23.92;;;17.95;;
58528;SDS011;44322;52.968;5.816;2023-05-07T13:14:13;21.17;;;17.30;;
58528;SDS011;44322;52.968;5.816;2023-05-07T13:16:38;22.63;;;17.92;;
58528;SDS011;44322;52.968;5.816;2023-05-07T13:19:04;22.35;;;17.33;;
58528;SDS011;44322;52.968;5.816;2023-05-07T13:21:30;23.52;;;18.52;;
58528;SDS011;44322;52.968;5.816;2023-05-07T13:23:57;20.75;;;17.13;;
58528;SDS011;44322;52.968;5.816;2023-05-07T13:26:23;20.67;;;16.83;;
58528;SDS011;44322;52.968;5.816;2023-05-07T13:28:49;18.17;;;14.68;;
58528;SDS011;44322;52.968;5.816;2023-05-07T13:31:16;22.55;;;17.88;;
58528;SDS011;44322;52.968;5.816;2023-05-07T13:33:42;21.40;;;17.60;;
58528;SDS011;44322;52.968;5.816;2023-05-07T13:36:08;19.50;;;16.67;;
58528;SDS011;44322;52.968;5.816;2023-05-07T13:38:34;22.48;;;18.40;;
58528;SDS011;44322;52.968;5.816;2023-05-07T13:41:00;22.75;;;18.27;;
58528;SDS011;44322;52.968;5.816;2023-05-07T13:43:25;20.08;;;17.52;;
58528;SDS011;44322;52.968;5.816;2023-05-07T13:45:51;21.55;;;17.05;;
58528;SDS011;44322;52.968;5.816;2023-05-07T13:48:16;20.17;;;16.83;;
58528;SDS011;44322;52.968;5.816;2023-05-07T13:50:42;20.95;;;16.52;;
58528;SDS011;44322;52.968;5.816;2023-05-07T13:53:08;21.08;;;18.40;;
58528;SDS011;44322;52.968;5.816;2023-05-07T13:55:33;20.88;;;17.02;;
58528;SDS011;44322;52.968;5.816;2023-05-07T13:58:00;18.48;;;16.30;;
58528;SDS011;44322;52.968;5.816;2023-05-07T14:00:27;19.25;;;15.45;;
58528;SDS011;44322;52.968;5.816;2023-05-07T14:02:53;19.88;;;15.90;;
58528;SDS011;44322;52.968;5.816;2023-05-07T14:05:20;18.20;;;14.97;;
58528;SDS011;44322;52.968;5.816;2023-05-07T14:07:46;18.08;;;15.88;;
58528;SDS011;44322;52.968;5.816;2023-05-07T14:10:12;18.38;;;14.43;;
58528;SDS011;44322;52.968;5.816;2023-05-07T14:12:38;16.45;;;14.50;;
58528;SDS011;44322;52.968;5.816;2023-05-07T14:15:04;18.52;;;15.30;;
58528;SDS011;44322;52.968;5.816;2023-05-07T14:17:30;19.13;;;15.68;;
58528;SDS011;44322;52.968;5.816;2023-05-07T14:19:57;19.88;;;15.18;;
58528;SDS011;44322;52.968;5.816;2023-05-07T14:22:22;19.08;;;15.65;;
58528;SDS011;44322;52.968;5.816;2023-05-07T14:24:48;19.02;;;15.48;;
58528;SDS011;44322;52.968;5.816;2023-05-07T14:27:15;18.88;;;14.13;;
58528;SDS011;44322;52.968;5.816;2023-05-07T14:29:40;16.85;;;14.40;;
58528;SDS011;44322;52.968;5.816;2023-05-07T14:32:07;18.85;;;14.57;;
58528;SDS011;44322;52.968;5.816;2023-05-07T14:34:33;17.42;;;13.77;;
58528;SDS011;44322;52.968;5.816;2023-05-07T14:36:59;14.93;;;13.20;;
58528;SDS011;44322;52.968;5.816;2023-05-07T14:39:25;15.93;;;13.60;;
58528;SDS011;44322;52.968;5.816;2023-05-07T14:41:51;15.80;;;13.93;;
58528;SDS011;44322;52.968;5.816;2023-05-07T14:44:17;16.50;;;13.93;;
58528;SDS011;44322;52.968;5.816;2023-05-07T14:46:42;17.52;;;14.27;;
58528;SDS011;44322;52.968;5.816;2023-05-07T14:49:08;16.63;;;13.15;;
58528;SDS011;44322;52.968;5.816;2023-05-07T14:51:41;14.15;;;12.43;;
58528;SDS011;44322;52.968;5.816;2023-05-07T14:54:07;12.35;;;10.75;;
58528;SDS011;44322;52.968;5.816;2023-05-07T14:56:33;17.67;;;13.02;;